createdAt,value
2022-11-28T00:00:09.120Z,6.27
2022-11-28T00:02:40.381Z,6.25
2022-11-28T00:05:12.012Z,6.26
2022-11-28T00:07:41.474Z,6.28
2022-11-28T00:10:12.166Z,6.31
2022-11-28T00:12:41.742Z,6.33
2022-11-28T00:15:12.633Z,6.36
2022-11-28T00:17:42.042Z,6.37
2022-11-28T00:20:11.570Z,6.38
2022-11-28T00:22:40.798Z,6.42
2022-11-28T00:25:10.119Z,6.51
2022-11-28T00:27:39.485Z,6.51
2022-11-28T00:30:09.771Z,6.55
2022-11-28T00:32:39.073Z,6.58
2022-11-28T00:35:08.933Z,6.60
2022-11-28T00:37:38.429Z,6.64
2022-11-28T00:40:08.590Z,6.66
2022-11-28T00:42:37.840Z,6.66
2022-11-28T00:45:07.705Z,6.74
2022-11-28T00:47:36.957Z,6.73
2022-11-28T00:50:07.226Z,6.76
2022-11-28T00:52:36.584Z,6.77
2022-11-28T00:55:06.359Z,6.76
2022-11-28T00:57:35.594Z,6.79
2022-11-28T01:00:06.867Z,6.81
2022-11-28T01:02:36.489Z,6.86
2022-11-28T01:05:06.436Z,6.85
2022-11-28T01:07:35.695Z,6.88
2022-11-28T01:10:05.524Z,6.87
2022-11-28T01:12:34.898Z,6.87
2022-11-28T01:15:06.936Z,6.89
2022-11-28T01:17:36.465Z,6.91
2022-11-28T01:20:09.097Z,6.90
2022-11-28T01:22:37.704Z,6.91
2022-11-28T01:25:07.560Z,6.88
2022-11-28T01:27:36.964Z,6.92
2022-11-28T01:30:08.013Z,6.89
2022-11-28T01:32:37.412Z,6.88
2022-11-28T01:35:07.140Z,6.86
2022-11-28T01:37:36.418Z,6.84
2022-11-28T01:40:07.229Z,6.86
2022-11-28T01:42:36.658Z,6.82
2022-11-28T01:45:14.899Z,6.85
2022-11-28T01:47:44.674Z,6.79
2022-11-28T01:50:14.658Z,6.76
2022-11-28T01:52:46.145Z,6.75
2022-11-28T01:55:17.618Z,6.72
2022-11-28T01:57:46.935Z,6.71
2022-11-28T02:00:19.248Z,6.69
2022-11-28T02:02:57.564Z,6.71
2022-11-28T02:05:27.100Z,6.65
2022-11-28T02:07:56.574Z,6.66
2022-11-28T02:10:28.953Z,6.63
2022-11-28T02:13:16.181Z,6.63
2022-11-28T02:15:57.437Z,6.62
2022-11-28T02:18:35.878Z,6.61
2022-11-28T02:21:10.992Z,6.58
2022-11-28T02:24:09.056Z,6.60
2022-11-28T02:26:46.993Z,6.58
2022-11-28T02:29:25.389Z,6.57
2022-11-28T02:32:16.020Z,6.52
2022-11-28T02:35:11.197Z,6.55
2022-11-28T02:37:58.448Z,6.53
2022-11-28T02:40:42.756Z,6.51
2022-11-28T02:43:33.307Z,6.50
2022-11-28T02:46:17.284Z,6.52
2022-11-28T02:48:52.798Z,6.51
2022-11-28T02:51:31.588Z,6.51
2022-11-28T02:54:03.582Z,6.48
2022-11-28T02:56:32.779Z,6.51
2022-11-28T02:59:02.336Z,6.46
2022-11-28T03:01:37.132Z,6.42
2022-11-28T03:04:35.662Z,6.43
2022-11-28T03:07:24.832Z,6.45
2022-11-28T03:10:06.076Z,6.46
2022-11-28T03:12:56.506Z,6.44
2022-11-28T03:15:29.110Z,6.41
2022-11-28T03:18:02.437Z,6.43
2022-11-28T03:20:48.749Z,6.42
2022-11-28T03:23:24.075Z,6.43
2022-11-28T03:26:25.239Z,6.44
2022-11-28T03:29:07.310Z,6.43
2022-11-28T03:31:39.715Z,6.43
2022-11-28T03:34:11.453Z,6.43
2022-11-28T03:36:44.077Z,6.46
2022-11-28T03:39:13.674Z,6.48
2022-11-28T03:41:48.670Z,6.42
2022-11-28T03:44:21.174Z,6.48
2022-11-28T03:46:51.106Z,6.44
2022-11-28T03:49:23.504Z,6.46
2022-11-28T03:51:58.841Z,6.43
2022-11-28T03:54:40.513Z,6.42
2022-11-28T03:57:12.562Z,6.44
2022-11-28T03:59:44.285Z,6.42
2022-11-28T04:02:21.938Z,6.41
2022-11-28T04:04:54.331Z,6.43
2022-11-28T04:07:29.685Z,6.41
2022-11-28T04:10:11.472Z,6.43
2022-11-28T04:13:02.037Z,6.44
2022-11-28T04:15:51.300Z,6.47
2022-11-28T04:18:26.417Z,6.50
2022-11-28T04:21:19.981Z,6.50
2022-11-28T04:23:49.891Z,6.48
2022-11-28T04:26:27.774Z,6.50
2022-11-28T04:28:59.050Z,6.49
2022-11-28T04:31:28.625Z,6.48
2022-11-28T04:34:01.260Z,6.49
2022-11-28T04:36:29.951Z,6.52
2022-11-28T04:38:59.952Z,6.56
2022-11-28T04:41:35.507Z,6.49
2022-11-28T04:44:07.935Z,6.48
2022-11-28T04:46:40.892Z,6.52
2022-11-28T04:49:11.037Z,6.54
2022-11-28T04:51:49.116Z,6.52
2022-11-28T04:54:24.440Z,6.54
2022-11-28T04:56:57.245Z,6.55
2022-11-28T04:59:27.930Z,6.50
2022-11-28T05:01:58.440Z,6.53
2022-11-28T05:04:27.751Z,6.56
2022-11-28T05:07:08.540Z,6.55
2022-11-28T05:09:38.506Z,6.55
2022-11-28T05:12:08.237Z,6.55
2022-11-28T05:14:37.525Z,6.58
2022-11-28T05:17:07.145Z,6.60
2022-11-28T05:19:36.362Z,6.58
2022-11-28T05:22:05.589Z,6.61
2022-11-28T05:24:34.828Z,6.61
2022-11-28T05:27:04.630Z,6.63
2022-11-28T05:29:33.864Z,6.63
2022-11-28T05:32:03.363Z,6.61
2022-11-28T05:34:32.801Z,6.62
2022-11-28T05:37:02.041Z,6.66
2022-11-28T05:39:31.779Z,6.62
2022-11-28T05:42:01.007Z,6.65
2022-11-28T05:44:30.343Z,6.64
2022-11-28T05:46:59.578Z,6.64
2022-11-28T05:49:29.186Z,6.64
2022-11-28T05:51:58.571Z,6.65
2022-11-28T05:54:28.681Z,6.70
2022-11-28T05:56:58.344Z,6.68
2022-11-28T05:59:28.047Z,6.73
2022-11-28T06:01:57.359Z,6.74
2022-11-28T06:04:26.970Z,6.68
2022-11-28T06:06:56.302Z,6.73
2022-11-28T06:09:26.385Z,6.72
2022-11-28T06:11:55.798Z,6.72
2022-11-28T06:14:25.074Z,6.68
2022-11-28T06:16:57.102Z,6.68
2022-11-28T06:19:26.441Z,6.72
2022-11-28T06:21:56.411Z,6.78
2022-11-28T06:24:25.802Z,6.77
2022-11-28T06:26:55.315Z,6.76
2022-11-28T06:29:24.689Z,6.77
2022-11-28T06:31:54.172Z,6.82
2022-11-28T06:34:24.461Z,6.80
2022-11-28T06:36:53.682Z,6.80
2022-11-28T06:39:22.921Z,6.79
2022-11-28T06:41:52.156Z,6.80
2022-11-28T06:44:21.782Z,6.81
2022-11-28T06:46:51.141Z,6.86
2022-11-28T06:49:20.577Z,6.85
2022-11-28T06:51:49.844Z,6.80
2022-11-28T06:54:19.158Z,6.81
2022-11-28T06:56:48.883Z,6.81
2022-11-28T06:59:18.269Z,6.81
2022-11-28T07:01:47.808Z,6.88
2022-11-28T07:04:17.326Z,6.89
2022-11-28T07:06:46.924Z,6.87
2022-11-28T07:09:16.515Z,6.91
2022-11-28T07:11:46.048Z,6.88
2022-11-28T07:14:15.847Z,6.89
2022-11-28T07:16:45.617Z,6.89
2022-11-28T07:19:15.262Z,6.93
2022-11-28T07:21:44.565Z,6.90
2022-11-28T07:24:14.907Z,6.93
2022-11-28T07:26:44.341Z,6.93
2022-11-28T07:29:18.604Z,6.92
2022-11-28T07:31:48.607Z,6.93
2022-11-28T07:34:18.242Z,6.91
2022-11-28T07:36:47.858Z,6.97
2022-11-28T07:39:17.960Z,6.97
2022-11-28T07:41:47.404Z,6.98
2022-11-28T07:44:20.142Z,7.02
2022-11-28T07:46:48.780Z,7.01
2022-11-28T07:49:18.356Z,7.05
2022-11-28T07:51:47.563Z,7.02
2022-11-28T07:54:16.979Z,7.04
2022-11-28T07:59:17.407Z,7.09
2022-11-28T08:01:46.678Z,7.13
2022-11-28T08:04:16.140Z,7.10
2022-11-28T08:06:45.589Z,7.13
2022-11-28T08:09:15.226Z,7.11
2022-11-28T08:11:44.451Z,7.14
2022-11-28T08:14:14.551Z,7.12
2022-11-28T08:16:45.980Z,7.13
2022-11-28T08:19:15.540Z,7.15
2022-11-28T08:21:44.883Z,7.19
2022-11-28T08:24:14.911Z,7.19
2022-11-28T08:26:44.251Z,7.21
2022-11-28T08:29:13.747Z,7.21
2022-11-28T08:31:43.543Z,7.22
2022-11-28T08:34:12.953Z,7.25
2022-11-28T08:36:43.579Z,7.26
2022-11-28T08:39:28.534Z,7.27
2022-11-28T08:41:44.193Z,7.27
2022-11-28T08:44:13.897Z,7.27
2022-11-28T08:46:43.416Z,7.28
2022-11-28T08:49:12.957Z,7.27
2022-11-28T08:51:42.250Z,7.35
2022-11-28T08:54:11.651Z,7.36
2022-11-28T08:56:40.868Z,7.37
2022-11-28T08:59:11.022Z,7.36
2022-11-28T09:01:40.364Z,7.37
2022-11-28T09:04:09.981Z,7.38
2022-11-28T09:06:42.254Z,7.43
2022-11-28T09:09:11.796Z,7.45
2022-11-28T09:11:41.321Z,7.46
2022-11-28T09:14:11.099Z,7.52
2022-11-28T09:16:41.658Z,7.55
2022-11-28T09:19:11.236Z,7.56
2022-11-28T09:21:41.656Z,7.60
2022-11-28T09:24:12.891Z,7.64
2022-11-28T09:26:42.794Z,7.66
2022-11-28T09:29:12.038Z,7.66
2022-11-28T09:31:46.966Z,7.72
2022-11-28T09:34:12.723Z,7.73
2022-11-28T09:36:42.345Z,7.72
2022-11-28T09:39:11.723Z,7.76
2022-11-28T09:41:47.081Z,7.71
2022-11-28T09:44:19.661Z,7.77
2022-11-28T09:46:48.642Z,7.79
2022-11-28T09:49:39.998Z,7.82
2022-11-28T09:52:07.427Z,7.87
2022-11-28T09:54:52.080Z,7.87
2022-11-28T09:57:24.457Z,7.93
2022-11-28T09:59:53.858Z,7.96
2022-11-28T10:02:44.966Z,7.97
2022-11-28T10:05:38.991Z,8.00
2022-11-28T10:08:27.857Z,8.03
2022-11-28T10:11:03.935Z,8.03
2022-11-28T10:14:06.185Z,8.04
2022-11-28T10:16:23.029Z,8.09
2022-11-28T10:18:58.581Z,8.12
2022-11-28T10:21:47.369Z,8.21
2022-11-28T10:24:22.195Z,8.20
2022-11-28T10:27:00.309Z,8.22
2022-11-28T10:29:49.460Z,8.16
2022-11-28T10:32:21.888Z,8.24
2022-11-28T10:35:02.595Z,8.26
2022-11-28T10:37:33.488Z,8.30
2022-11-28T10:40:11.926Z,8.30
2022-11-28T10:42:44.352Z,8.29
2022-11-28T10:45:34.955Z,8.30
2022-11-28T10:48:37.312Z,8.26
2022-11-28T10:50:53.767Z,8.30
2022-11-28T10:53:26.516Z,8.28
2022-11-28T10:56:09.897Z,8.29
2022-11-28T10:58:47.856Z,8.31
2022-11-28T11:01:17.227Z,8.29
2022-11-28T11:03:46.774Z,8.33
2022-11-28T11:06:15.984Z,8.29
2022-11-28T11:08:46.982Z,8.36
2022-11-28T11:11:22.061Z,8.41
2022-11-28T11:14:12.408Z,8.45
2022-11-28T11:16:50.662Z,8.50
2022-11-28T11:19:25.103Z,8.46
2022-11-28T11:22:00.577Z,8.56
2022-11-28T11:24:29.928Z,8.51
2022-11-28T11:27:18.319Z,8.48
2022-11-28T11:29:51.379Z,8.47
2022-11-28T11:32:29.912Z,8.50
2022-11-28T11:35:00.533Z,8.45
2022-11-28T11:37:35.229Z,8.47
2022-11-28T11:40:07.997Z,8.41
2022-11-28T11:42:37.398Z,8.42
2022-11-28T11:45:36.048Z,8.45
2022-11-28T11:48:05.569Z,8.48
2022-11-28T11:50:36.446Z,8.51
2022-11-28T11:53:14.092Z,8.56
2022-11-28T11:55:49.320Z,8.52
2022-11-28T11:58:21.680Z,8.56
2022-11-28T12:00:53.010Z,8.60
2022-11-28T12:03:28.341Z,8.63
2022-11-28T12:06:13.714Z,8.59
2022-11-28T12:08:34.095Z,8.68
2022-11-28T12:11:15.605Z,8.62
2022-11-28T12:13:45.259Z,8.63
2022-11-28T12:16:36.441Z,8.63
2022-11-28T12:19:14.576Z,8.70
2022-11-28T12:21:53.097Z,8.67
2022-11-28T12:24:26.038Z,8.64
2022-11-28T12:27:01.460Z,8.68
2022-11-28T12:29:52.159Z,8.67
2022-11-28T12:32:27.902Z,8.69
2022-11-28T12:35:24.740Z,8.76
2022-11-28T12:38:10.636Z,8.80
2022-11-28T12:40:48.815Z,8.89
2022-11-28T12:43:33.454Z,8.91
2022-11-28T12:46:18.457Z,8.91
2022-11-28T12:49:11.130Z,8.94
2022-11-28T12:51:46.274Z,8.90
2022-11-28T12:54:30.521Z,8.96
2022-11-28T12:57:05.756Z,8.91
2022-11-28T12:59:38.303Z,8.97
2022-11-28T13:02:35.126Z,9.01
2022-11-28T13:05:24.199Z,9.05
2022-11-28T13:08:18.088Z,8.97
2022-11-28T13:11:07.018Z,8.97
2022-11-28T13:13:42.117Z,9.10
2022-11-28T13:16:34.026Z,9.21
2022-11-28T13:19:24.827Z,9.45
2022-11-28T13:21:57.378Z,9.58
2022-11-28T13:24:38.782Z,9.60
2022-11-28T13:27:36.571Z,9.55
2022-11-28T13:30:20.379Z,9.53
2022-11-28T13:33:09.297Z,9.71
2022-11-28T13:35:40.428Z,9.76
2022-11-28T13:38:50.497Z,9.75
2022-11-28T13:41:01.458Z,9.71
2022-11-28T13:43:54.767Z,9.72
2022-11-28T13:46:24.490Z,9.66
2022-11-28T13:49:19.782Z,9.54
2022-11-28T13:51:33.510Z,9.49
2022-11-28T13:54:24.283Z,9.57
2022-11-28T13:57:19.091Z,9.57
2022-11-28T13:59:51.635Z,9.60
2022-11-28T14:02:36.851Z,9.65
2022-11-28T14:05:09.187Z,9.76
2022-11-28T14:07:38.997Z,9.78
2022-11-28T14:10:17.348Z,9.83
2022-11-28T14:12:58.069Z,9.86
2022-11-28T14:15:56.550Z,9.82
2022-11-28T14:18:55.833Z,9.69
2022-11-28T14:21:06.039Z,9.68
2022-11-28T14:23:48.400Z,9.59
2022-11-28T14:26:38.002Z,9.48
2022-11-28T14:29:22.448Z,9.36
2022-11-28T14:32:21.689Z,9.47
2022-11-28T14:34:44.947Z,9.56
2022-11-28T14:37:30.147Z,9.51
2022-11-28T14:40:00.224Z,9.49
2022-11-28T14:42:59.768Z,9.32
2022-11-28T14:45:44.525Z,9.23
2022-11-28T14:48:26.537Z,9.11
2022-11-28T14:51:01.387Z,8.97
2022-11-28T14:53:38.534Z,8.87
2022-11-28T14:56:25.876Z,8.78
2022-11-28T14:58:57.534Z,8.71
2022-11-28T15:01:35.916Z,8.56
2022-11-28T15:04:14.392Z,8.51
2022-11-28T15:06:44.710Z,8.45
2022-11-28T15:09:29.740Z,8.45
2022-11-28T15:12:08.507Z,8.49
2022-11-28T15:14:39.839Z,8.39
2022-11-28T15:17:12.744Z,8.38
2022-11-28T15:19:47.423Z,8.35
2022-11-28T15:22:36.228Z,8.35
2022-11-28T15:25:07.353Z,8.28
2022-11-28T15:27:36.692Z,8.21
2022-11-28T15:30:08.456Z,8.15
2022-11-28T15:32:37.931Z,8.14
2022-11-28T15:35:12.484Z,8.11
2022-11-28T15:37:38.585Z,8.08
2022-11-28T15:40:08.951Z,8.00
2022-11-28T15:42:38.936Z,7.92
2022-11-28T15:45:11.447Z,7.84
2022-11-28T15:47:41.042Z,7.80
2022-11-28T15:50:17.291Z,7.79
2022-11-28T15:53:16.618Z,7.74
2022-11-28T15:55:46.209Z,7.72
2022-11-28T15:58:29.130Z,7.66
2022-11-28T16:01:07.171Z,7.62
2022-11-28T16:03:39.970Z,7.54
2022-11-28T16:06:11.133Z,7.50
2022-11-28T16:08:49.030Z,7.54
2022-11-28T16:11:20.339Z,7.57
2022-11-28T16:13:49.930Z,7.55
2022-11-28T16:16:25.221Z,7.54
2022-11-28T16:19:06.169Z,7.56
2022-11-28T16:21:40.896Z,7.56
2022-11-28T16:24:36.935Z,7.54
2022-11-28T16:27:04.437Z,7.53
2022-11-28T16:29:36.212Z,7.49
2022-11-28T16:32:10.514Z,7.42
2022-11-28T16:34:48.177Z,7.42
2022-11-28T16:37:23.256Z,7.48
2022-11-28T16:40:07.039Z,7.47
2022-11-28T16:42:36.570Z,7.58
2022-11-28T16:45:17.496Z,7.63
2022-11-28T16:47:47.303Z,7.67
2022-11-28T16:50:25.324Z,7.70
2022-11-28T16:52:57.851Z,7.73
2022-11-28T16:55:37.056Z,7.79
2022-11-28T16:58:18.865Z,7.81
2022-11-28T17:01:02.347Z,7.73
2022-11-28T17:03:43.975Z,7.77
2022-11-28T17:06:16.633Z,7.82
2022-11-28T17:08:45.331Z,7.84
2022-11-28T17:11:15.205Z,7.84
2022-11-28T17:13:44.711Z,7.84
2022-11-28T17:16:19.647Z,7.86
2022-11-28T17:18:49.637Z,7.89
2022-11-28T17:21:21.735Z,7.91
2022-11-28T17:23:51.069Z,7.89
2022-11-28T17:26:20.282Z,7.87
2022-11-28T17:28:49.635Z,7.91
2022-11-28T17:31:19.326Z,7.92
2022-11-28T17:33:48.635Z,7.97
2022-11-28T17:36:17.901Z,8.03
2022-11-28T17:38:47.384Z,8.05
2022-11-28T17:41:16.594Z,8.02
2022-11-28T17:43:46.002Z,8.04
2022-11-28T17:46:15.448Z,8.04
2022-11-28T17:48:44.698Z,8.07
2022-11-28T17:51:14.394Z,8.08
2022-11-28T17:53:44.183Z,8.07
2022-11-28T17:56:14.571Z,8.07
2022-11-28T17:58:45.067Z,8.12
2022-11-28T18:01:17.679Z,8.05
2022-11-28T18:03:46.460Z,8.08
2022-11-28T18:06:17.554Z,8.05
2022-11-28T18:08:49.149Z,8.01
2022-11-28T18:11:20.127Z,7.88
2022-11-28T18:13:50.082Z,7.83
2022-11-28T18:16:22.948Z,7.74
2022-11-28T18:18:53.619Z,7.71
2022-11-28T18:21:22.988Z,7.68
2022-11-28T18:23:52.476Z,7.63
2022-11-28T18:26:23.975Z,7.61
2022-11-28T18:28:54.106Z,7.55
2022-11-28T18:31:27.401Z,7.52
2022-11-28T18:34:01.467Z,7.51
2022-11-28T18:36:28.390Z,7.45
2022-11-28T18:39:00.019Z,7.44
2022-11-28T18:41:30.147Z,7.40
2022-11-28T18:44:01.076Z,7.35
2022-11-28T18:46:31.323Z,7.33
2022-11-28T18:49:00.882Z,7.30
2022-11-28T18:51:33.219Z,7.29
2022-11-28T18:54:05.121Z,7.24
2022-11-28T18:56:35.919Z,7.18
2022-11-28T18:59:07.269Z,7.14
2022-11-28T19:01:38.398Z,7.09
2022-11-28T19:04:11.103Z,7.06
2022-11-28T19:06:40.404Z,7.09
2022-11-28T19:09:13.026Z,7.07
2022-11-28T19:11:43.551Z,7.08
2022-11-28T19:14:17.788Z,7.09
2022-11-28T19:16:49.609Z,7.06
2022-11-28T19:19:19.533Z,7.02
2022-11-28T19:21:50.513Z,7.05
2022-11-28T19:24:20.048Z,7.02
2022-11-28T19:26:51.123Z,6.98
2022-11-28T19:29:20.641Z,6.93
2022-11-28T19:31:50.317Z,6.90
2022-11-28T19:34:20.740Z,6.87
2022-11-28T19:36:51.857Z,6.87
2022-11-28T19:39:24.979Z,6.89
2022-11-28T19:41:57.050Z,6.89
2022-11-28T19:44:29.246Z,6.89
2022-11-28T19:46:58.816Z,6.89
2022-11-28T19:49:29.425Z,6.85
2022-11-28T19:51:58.935Z,6.80
2022-11-28T19:54:28.932Z,6.77
2022-11-28T19:56:58.238Z,6.74
2022-11-28T19:59:28.897Z,6.71
2022-11-28T20:01:59.399Z,6.64
2022-11-28T20:04:29.012Z,6.60
2022-11-28T20:06:58.615Z,6.57
2022-11-28T20:09:28.197Z,6.51
2022-11-28T20:11:57.646Z,6.58
2022-11-28T20:14:28.838Z,6.61
2022-11-28T20:17:09.838Z,6.61
2022-11-28T20:19:39.158Z,6.62
2022-11-28T20:22:08.729Z,6.59
2022-11-28T20:24:37.938Z,6.59
2022-11-28T20:27:07.500Z,6.54
2022-11-28T20:29:36.749Z,6.53
2022-11-28T20:32:06.169Z,6.50
2022-11-28T20:34:35.666Z,6.43
2022-11-28T20:37:05.586Z,6.37
2022-11-28T20:39:34.936Z,6.40
2022-11-28T20:42:04.781Z,6.39
2022-11-28T20:44:34.161Z,6.33
2022-11-28T20:47:04.209Z,6.28
2022-11-28T20:49:33.657Z,6.27
2022-11-28T20:52:02.922Z,6.24
2022-11-28T20:54:32.201Z,6.19
2022-11-28T20:59:32.740Z,6.17
2022-11-28T21:02:02.198Z,6.12
2022-11-28T21:04:31.659Z,6.09
2022-11-28T21:07:01.129Z,6.09
2022-11-28T21:09:30.513Z,6.06
2022-11-28T21:11:59.876Z,6.07
2022-11-28T21:14:30.186Z,6.14
2022-11-28T21:16:59.842Z,6.13
2022-11-28T21:19:29.191Z,6.15
2022-11-28T21:21:58.578Z,6.13
2022-11-28T21:24:28.053Z,6.15
2022-11-28T21:26:57.379Z,6.17
2022-11-28T21:29:26.626Z,6.19
2022-11-28T21:31:55.989Z,6.15
2022-11-28T21:34:25.465Z,6.13
2022-11-28T21:36:55.164Z,6.10
2022-11-28T21:39:24.497Z,6.05
2022-11-28T21:41:53.786Z,6.06
2022-11-28T21:44:23.032Z,6.13
2022-11-28T21:46:52.394Z,6.09
2022-11-28T21:49:21.658Z,6.07
2022-11-28T21:51:53.200Z,6.01
2022-11-28T21:54:23.540Z,5.98
2022-11-28T21:56:53.271Z,6.02
2022-11-28T21:59:23.255Z,5.99
2022-11-28T22:01:53.354Z,5.97
2022-11-28T22:04:23.309Z,5.95
2022-11-28T22:06:52.623Z,5.88
2022-11-28T22:09:21.964Z,5.91
2022-11-28T22:11:51.178Z,5.98
2022-11-28T22:14:23.996Z,6.00
2022-11-28T22:16:53.285Z,5.99
2022-11-28T22:19:22.981Z,5.98
2022-11-28T22:21:54.624Z,5.93
2022-11-28T22:24:24.500Z,5.97
2022-11-28T22:26:55.223Z,5.92
2022-11-28T22:29:25.849Z,5.88
2022-11-28T22:31:55.718Z,5.77
2022-11-28T22:34:25.021Z,5.74
2022-11-28T22:36:54.499Z,5.67
2022-11-28T22:39:23.787Z,5.61
2022-11-28T22:41:53.356Z,5.54
2022-11-28T22:44:22.736Z,5.52
2022-11-28T22:46:52.197Z,5.44
2022-11-28T22:49:21.440Z,5.43
2022-11-28T22:51:51.012Z,5.52
2022-11-28T22:54:20.342Z,5.61
2022-11-28T22:56:51.156Z,5.63
2022-11-28T22:59:20.903Z,5.65
2022-11-28T23:01:51.030Z,5.70
2022-11-28T23:04:20.513Z,5.74
2022-11-28T23:06:50.241Z,5.79
2022-11-28T23:09:21.073Z,5.81
2022-11-28T23:11:51.367Z,5.79
2022-11-28T23:14:20.990Z,5.80
2022-11-28T23:16:50.480Z,5.98
2022-11-28T23:19:20.325Z,6.09
2022-11-28T23:21:50.970Z,6.17
2022-11-28T23:24:23.340Z,6.14
2022-11-28T23:26:54.313Z,6.19
2022-11-28T23:29:25.026Z,6.26
2022-11-28T23:31:54.461Z,6.34
2022-11-28T23:34:25.453Z,6.33
2022-11-28T23:36:54.855Z,6.34
2022-11-28T23:39:24.364Z,6.30
2022-11-28T23:41:55.565Z,6.32
2022-11-28T23:44:24.791Z,6.26
2022-11-28T23:46:54.084Z,6.26
2022-11-28T23:49:23.320Z,6.34
2022-11-28T23:51:52.544Z,6.27
2022-11-28T23:54:21.839Z,6.30
2022-11-28T23:56:51.317Z,6.25
2022-11-28T23:59:20.512Z,6.19
